Погода Кочеровона 2 недели

Смоленская область, Россия

25 мая-07 июня
  • 25мая
    Сегодня
    +9°
    +24°
    Ясно и безоблачно
    ВремяПогодаТемператураВлажностьДавлениеВетер, м/сВероятность осадков
    00:00Ясно и безоблачно+10°C55 %752 мм2.4 м/с2 %
    03:00Ясно и безоблачно+7°C66 %752 мм2.5 м/с2 %
    06:00Ясно и безоблачно+8°C66 %752 мм2.5 м/с2 %
    09:00Ясно и безоблачно+17°C48 %752 мм1.7 м/с2 %
    12:00Практически безоблачно+21°C34 %751 мм2.0 м/с2 %
    15:00Ясно и безоблачно+23°C32 %750 мм2.4 м/с2 %
    18:00Ясно и безоблачно+23°C34 %749 мм2.3 м/с2 %
    21:00Ясно и безоблачно+17°C57 %748 мм2.1 м/с2 %
  • 26мая
    Воскресенье
    +10°
    +25°
    Небольшая облачность
    ВремяПогодаТемператураВлажностьДавлениеВетер, м/сВероятность осадков
    00:00Ясно и безоблачно+11°C67 %748 мм2.3 м/с2 %
    03:00Ясно и безоблачно+9°C77 %748 мм2.4 м/с2 %
    06:00Ясно и безоблачно+11°C72 %748 мм2.3 м/с2 %
    09:00Ясно и безоблачно+20°C53 %748 мм1.9 м/с2 %
    12:00Ясно и безоблачно+24°C39 %748 мм2.8 м/с5 %
    15:00Небольшая облачность+25°C40 %747 мм3.4 м/с23 %
    18:00Ясно и безоблачно+23°C56 %747 мм2.2 м/с37 %
    21:00Ясно и безоблачно+18°C82 %748 мм2.4 м/с25 %
  • 27мая
    Понедельник
    +10°
    +24°
    Ясно и безоблачно
    ВремяПогодаТемператураВлажностьДавлениеВетер, м/сВероятность осадков
    00:00Ясно и безоблачно+13°C94 %748 мм2.0 м/с2 %
    03:00Практически безоблачно+11°C70 %749 мм2.9 м/с2 %
    06:00Ясно и безоблачно+11°C62 %749 мм2.4 м/с2 %
    09:00Ясно и безоблачно+18°C52 %750 мм2.0 м/с2 %
    12:00Ясно и безоблачно+22°C40 %750 мм2.6 м/с7 %
    15:00Ясно и безоблачно+23°C38 %749 мм1.7 м/с11 %
    18:00Ясно и безоблачно+23°C38 %748 мм1.1 м/с9 %
    21:00Ясно и безоблачно+18°C61 %748 мм2.4 м/с2 %
  • 28мая
    Вторник
    +13°
    +26°
    Облачно с прояснениями
    ВремяПогодаТемператураВлажностьДавлениеВетер, м/сВероятность осадков
    00:00Ясно и безоблачно+13°C69 %747 мм2.2 м/с2 %
    03:00Ясно и безоблачно+11°C75 %747 мм1.8 м/с2 %
    06:00Ясно и безоблачно+12°C79 %747 мм1.8 м/с2 %
    09:00Ясно и безоблачно+21°C61 %747 мм1.0 м/с2 %
    12:00Практически безоблачно+24°C40 %747 мм0.8 м/с7 %
    15:00Облачно с прояснениями+25°C36 %746 мм0.7 м/с14 %
    18:00Практически безоблачно+25°C36 %745 мм1.3 м/с13 %
    21:00Практически безоблачно+20°C61 %745 мм1.8 м/с4 %
  • 29мая
    Среда
    +9°
    +25°
    Практически безоблачно
    ВремяПогодаТемператураВлажностьДавлениеВетер, м/сВероятность осадков
    00:00Пасмурно, сплошная облачность+16°C58 %744 мм2.8 м/с2 %
    03:00Облачно с прояснениями+14°C63 %744 мм2.2 м/с2 %
    06:00Облачно с прояснениями+15°C68 %743 мм1.2 м/с2 %
    09:00Ясно и безоблачно+22°C55 %744 мм0.4 м/с3 %
    12:00Практически безоблачно+24°C38 %743 мм1.3 м/с18 %
    15:00Практически безоблачно+23°C37 %742 мм1.5 м/с25 %
    18:00Небольшая облачность+24°C36 %741 мм0.3 м/с23 %
    21:00Небольшая облачность+20°C62 %741 мм1.1 м/с5 %
Мы используем cookies
Соглашаюсь